Time;durP1;ratioP1;P1;durP2;ratioP2;P2;SDS_P1;SDS_P2;PMS_P1;PMS_P2;Temp;Humidity;BMP_temperature;BMP_pressure;BME280_temperature;BME280_humidity;BME280_pressure;Samples;Min_cycle;Max_cycle;Signal;HPM_P1;HPM_P2
2021/01/21 00:35:49;691485.00;2.30;1192.48;0.00;0.00;0.62;;;;;12.10;1.00;;;;;;2271011;61;962;-88
2021/01/21 00:38:16;161186.00;0.54;279.08;0.00;0.00;0.62;;;;;12.20;1.00;;;;;;2268855;61;910;-89
2021/01/21 01:27:56;874554.00;2.92;1511.47;80361.00;0.27;139.66;;;;;11.80;1.00;;;;;;2271046;61;1310;-92
2021/01/21 01:32:51;887238.00;2.96;1533.72;106611.00;0.36;184.98;;;;;12.40;1.00;;;;;;2270675;61;1280;-91
2021/01/21 01:47:58;1200139.00;4.00;2090.47;0.00;0.00;0.62;;;;;11.70;1.00;;;;;;2278728;61;1003;-92
2021/01/21 01:52:54;958405.00;3.19;1658.94;0.00;0.00;0.62;;;;;12.10;1.00;;;;;;2278761;61;1306;-89
2021/01/21 02:05:29;697325.00;2.32;1202.60;16881.00;0.06;29.87;;;;;11.40;1.00;;;;;;2510144;55;2022;31
2021/01/21 03:12:33;1011089.00;3.37;1752.12;4721.00;0.02;8.80;;;;;12.70;1.00;;;;;;2279222;61;1005;-90
2021/01/21 04:47:20;981243.00;3.27;1699.28;89850.00;0.30;156.05;;;;;13.80;1.00;;;;;;2274928;61;1173;-90
2021/01/21 04:52:16;1023793.00;3.41;1774.66;81626.00;0.27;141.85;;;;;13.80;1.00;;;;;;2279013;61;1290;-91
2021/01/21 05:19:24;893998.00;2.98;1545.58;85091.00;0.28;147.83;;;;;13.60;1.00;;;;;;2274877;61;989;-89
2021/01/21 05:44:11;1631088.00;5.44;2892.30;83610.00;0.28;145.27;;;;;13.40;1.00;;;;;;2504084;55;2005;31
2021/01/21 06:38:40;1081028.00;3.60;1876.53;84751.00;0.28;147.24;;;;;12.90;1.00;;;;;;2279493;61;953;-89
2021/01/21 07:30:57;361326.00;1.20;623.33;0.00;0.00;0.62;;;;;13.90;1.00;;;;;;2504898;55;2086;31
2021/01/21 09:27:14;1425909.00;4.75;2504.46;85332.00;0.28;148.25;;;;;13.60;1.00;;;;;;2270654;61;1021;-90
2021/01/21 09:46:57;1099697.00;3.67;1909.88;84877.00;0.28;147.46;;;;;13.90;1.00;;;;;;2492196;39;2060;31
2021/01/21 10:16:33;1267403.00;4.22;2212.57;89464.00;0.30;155.38;;;;;14.10;1.00;;;;;;2270378;61;1017;-89
2021/01/21 10:24:21;1279284.00;4.26;2234.24;23613.00;0.08;41.53;;;;;14.80;1.00;;;;;;2438901;55;2419;-86
2021/01/21 10:29:16;608144.00;2.03;1048.28;0.00;0.00;0.62;;;;;14.50;1.00;;;;;;2290180;60;1298;-91
2021/01/21 10:36:46;788584.00;2.63;1361.22;0.00;0.00;0.62;;;;;14.50;1.00;;;;;;2286510;61;997;-90
2021/01/21 10:41:41;723582.00;2.41;1248.16;0.00;0.00;0.62;;;;;14.80;1.00;;;;;;2286049;61;1315;-88
2021/01/21 11:08:59;1136877.00;3.79;1976.50;47950.00;0.16;83.64;;;;;15.00;1.00;;;;;;2503848;55;2023;31
2021/01/21 11:31:26;830452.00;2.77;1434.28;0.00;0.00;0.62;;;;;15.40;1.00;;;;;;2278543;61;929;-88
2021/01/21 11:51:14;0.00;0.00;0.62;0.00;0.00;0.62;;;;;15.40;1.00;;;;;;2273460;61;1188;-86
2021/01/21 11:53:40;0.00;0.00;0.62;0.00;0.00;0.62;;;;;15.50;1.00;;;;;;2271039;61;1359;-85
2021/01/21 11:56:07;24142.00;0.08;42.44;0.00;0.00;0.62;;;;;15.40;1.00;;;;;;2264512;61;1196;-86
2021/01/21 11:58:33;0.00;0.00;0.62;0.00;0.00;0.62;;;;;15.10;1.00;;;;;;2263951;61;1256;-86
2021/01/21 12:01:00;0.00;0.00;0.62;0.00;0.00;0.62;;;;;15.30;1.00;;;;;;2266985;61;1218;-85
2021/01/21 12:03:27;0.00;0.00;0.62;0.00;0.00;0.62;;;;;15.30;1.00;;;;;;2264755;61;2000;-86
2021/01/21 12:05:54;0.00;0.00;0.62;0.00;0.00;0.62;;;;;15.10;1.00;;;;;;2263759;61;1172;-86
2021/01/21 12:08:22;0.00;0.00;0.62;0.00;0.00;0.62;;;;;15.30;1.00;;;;;;2263859;61;1260;-86
2021/01/21 12:10:49;0.00;0.00;0.62;0.00;0.00;0.62;;;;;15.20;1.00;;;;;;2270483;61;1055;-86
2021/01/21 12:13:17;0.00;0.00;0.62;0.00;0.00;0.62;;;;;15.50;1.00;;;;;;2270504;61;1137;-86
2021/01/21 12:15:43;4217.00;0.01;7.93;0.00;0.00;0.62;;;;;15.60;1.00;;;;;;2270890;61;1101;-86
2021/01/21 12:18:10;0.00;0.00;0.62;0.00;0.00;0.62;;;;;15.50;1.00;;;;;;2271106;61;1090;-86
2021/01/21 12:20:37;0.00;0.00;0.62;0.00;0.00;0.62;;;;;15.40;1.00;;;;;;2271752;61;1148;-86
2021/01/21 12:23:03;21922.00;0.07;38.60;0.00;0.00;0.62;;;;;15.50;1.00;;;;;;2271224;61;1991;-86
2021/01/21 12:25:31;41881.00;0.14;73.14;0.00;0.00;0.62;;;;;15.60;1.00;;;;;;2270670;61;1373;-85
2021/01/21 12:27:57;0.00;0.00;0.62;0.00;0.00;0.62;;;;;15.40;1.00;;;;;;2263283;61;1085;-86
2021/01/21 12:30:24;3532.00;0.01;6.74;0.00;0.00;0.62;;;;;15.50;1.00;;;;;;2263985;61;1244;-85
2021/01/21 12:32:51;0.00;0.00;0.62;0.00;0.00;0.62;;;;;15.60;1.00;;;;;;2271804;61;1621;-86
2021/01/21 12:35:18;56159.00;0.19;97.84;0.00;0.00;0.62;;;;;15.80;1.00;;;;;;2268065;61;1261;-86
2021/01/21 12:37:44;242.00;0.00;1.04;0.00;0.00;0.62;;;;;15.70;1.00;;;;;;2264568;61;1193;-86
2021/01/21 12:40:12;0.00;0.00;0.62;0.00;0.00;0.62;;;;;15.50;1.00;;;;;;2271008;61;992;-86
2021/01/21 12:42:39;0.00;0.00;0.62;0.00;0.00;0.62;;;;;15.80;1.00;;;;;;2271305;61;2039;-86
2021/01/21 12:45:07;356.00;0.00;1.24;0.00;0.00;0.62;;;;;15.90;1.00;;;;;;2269876;61;1463;-84
2021/01/21 12:47:34;0.00;0.00;0.62;0.00;0.00;0.62;;;;;15.90;1.00;;;;;;2269822;61;1544;-85
2021/01/21 12:50:00;0.00;0.00;0.62;0.00;0.00;0.62;;;;;15.90;1.00;;;;;;2262865;61;1186;-85
2021/01/21 12:52:27;0.00;0.00;0.62;0.00;0.00;0.62;;;;;15.70;1.00;;;;;;2269817;61;1086;-86
2021/01/21 12:54:57;0.00;0.00;0.62;0.00;0.00;0.62;;;;;15.40;1.00;;;;;;2265385;61;1456;-85
2021/01/21 12:57:24;0.00;0.00;0.62;0.00;0.00;0.62;;;;;15.10;1.00;;;;;;2269496;61;1065;-86
2021/01/21 12:59:52;0.00;0.00;0.62;0.00;0.00;0.62;;;;;15.30;1.00;;;;;;2262191;61;1070;-84
2021/01/21 13:02:19;0.00;0.00;0.62;0.00;0.00;0.62;;;;;15.50;1.00;;;;;;2269330;61;1932;-85
2021/01/21 13:04:45;0.00;0.00;0.62;0.00;0.00;0.62;;;;;15.10;1.00;;;;;;2268522;61;1283;-85
2021/01/21 13:07:12;23554.00;0.08;41.42;0.00;0.00;0.62;;;;;14.90;1.00;;;;;;2269270;61;1226;-85
2021/01/21 13:09:43;55694.00;0.19;97.03;0.00;0.00;0.62;;;;;14.80;1.00;;;;;;2269671;61;1085;-85
2021/01/21 13:12:10;56319.00;0.19;98.11;0.00;0.00;0.62;;;;;14.60;1.00;;;;;;2271575;61;1120;-85
2021/01/21 13:14:36;0.00;0.00;0.62;0.00;0.00;0.62;;;;;14.60;1.00;;;;;;2263423;61;1304;-84
2021/01/21 13:17:04;0.00;0.00;0.62;0.00;0.00;0.62;;;;;14.60;1.00;;;;;;2258813;61;1267;-87
2021/01/21 13:19:34;0.00;0.00;0.62;0.00;0.00;0.62;;;;;14.70;1.00;;;;;;2255429;61;1193;-84
2021/01/21 13:22:01;74901.00;0.25;130.23;0.00;0.00;0.62;;;;;14.90;1.00;;;;;;2258499;61;1031;-85
2021/01/21 13:24:27;28381.00;0.09;49.78;0.00;0.00;0.62;;;;;15.10;1.00;;;;;;2261174;61;1943;-84
2021/01/21 13:26:54;0.00;0.00;0.62;0.00;0.00;0.62;;;;;15.10;1.00;;;;;;2261150;61;1184;-83
2021/01/21 13:29:21;0.00;0.00;0.62;0.00;0.00;0.62;;;;;14.90;1.00;;;;;;2257633;61;1018;-84
2021/01/21 13:31:47;142688.00;0.48;247.20;0.00;0.00;0.62;;;;;14.70;1.00;;;;;;2258068;61;1253;-84
2021/01/21 13:34:15;53548.00;0.18;93.32;0.00;0.00;0.62;;;;;14.70;1.00;;;;;;2264709;61;1423;-84
2021/01/21 13:36:41;4737.00;0.02;8.83;0.00;0.00;0.62;;;;;14.90;1.00;;;;;;2264126;61;1161;-86
2021/01/21 13:39:08;0.00;0.00;0.62;0.00;0.00;0.62;;;;;14.90;1.00;;;;;;2264957;61;1154;-84
2021/01/21 13:41:34;34467.00;0.11;60.31;0.00;0.00;0.62;;;;;14.90;1.00;;;;;;2264704;61;1156;-84
2021/01/21 13:44:01;43533.00;0.15;76.00;0.00;0.00;0.62;;;;;14.70;1.00;;;;;;2265221;61;1936;-84
2021/01/21 13:46:29;0.00;0.00;0.62;0.00;0.00;0.62;;;;;14.30;1.00;;;;;;2265748;61;1157;-85
2021/01/21 13:48:55;3104.00;0.01;6.00;0.00;0.00;0.62;;;;;14.10;1.00;;;;;;2270471;61;1109;-85
2021/01/21 13:51:23;0.00;0.00;0.62;0.00;0.00;0.62;;;;;14.30;1.00;;;;;;2269974;61;1101;-85
2021/01/21 13:53:49;17001.00;0.06;30.08;0.00;0.00;0.62;;;;;14.30;1.00;;;;;;2269797;61;1353;-85
2021/01/21 13:56:16;0.00;0.00;0.62;0.00;0.00;0.62;;;;;14.60;1.00;;;;;;2268680;61;1083;-85
2021/01/21 13:58:42;0.00;0.00;0.62;0.00;0.00;0.62;;;;;14.60;1.00;;;;;;2268966;61;1245;-84
2021/01/21 14:01:09;0.00;0.00;0.62;0.00;0.00;0.62;;;;;14.40;1.00;;;;;;2269729;61;1098;-85
2021/01/21 14:03:37;0.00;0.00;0.62;0.00;0.00;0.62;;;;;14.40;1.00;;;;;;2269999;61;2017;-85
2021/01/21 14:28:25;621867.00;2.07;1071.99;0.00;0.00;0.62;;;;;14.80;1.00;;;;;;2274024;61;1259;-85
2021/01/21 14:30:51;0.00;0.00;0.62;0.00;0.00;0.62;;;;;14.50;1.00;;;;;;2262162;61;1016;-85
2021/01/21 14:33:18;0.00;0.00;0.62;0.00;0.00;0.62;;;;;14.70;1.00;;;;;;2268737;61;1471;-87
2021/01/21 14:35:44;0.00;0.00;0.62;0.00;0.00;0.62;;;;;14.80;1.00;;;;;;2272561;61;1039;-86
2021/01/21 14:38:11;10321.00;0.03;18.51;0.00;0.00;0.62;;;;;15.00;1.00;;;;;;2265546;61;942;-86
2021/01/21 14:40:37;28715.00;0.10;50.36;0.00;0.00;0.62;;;;;14.90;1.00;;;;;;2265480;61;991;-85
2021/01/21 14:43:04;54358.00;0.18;94.72;0.00;0.00;0.62;;;;;14.80;1.00;;;;;;2272501;61;1916;-87
2021/01/21 14:45:31;138360.00;0.46;239.74;0.00;0.00;0.62;;;;;14.60;1.00;;;;;;2272418;61;1363;-85
2021/01/21 14:47:57;0.00;0.00;0.62;0.00;0.00;0.62;;;;;14.50;1.00;;;;;;2265426;61;1015;-86
2021/01/21 14:50:24;3257.00;0.01;6.27;0.00;0.00;0.62;;;;;14.70;1.00;;;;;;2268750;61;1001;-87
2021/01/21 14:52:51;0.00;0.00;0.62;0.00;0.00;0.62;;;;;14.40;1.00;;;;;;2272585;61;926;-87
2021/01/21 14:55:21;43404.00;0.14;75.78;0.00;0.00;0.62;;;;;14.50;1.00;;;;;;2272504;61;1327;-88
2021/01/21 14:57:48;0.00;0.00;0.62;0.00;0.00;0.62;;;;;15.00;1.00;;;;;;2268740;61;1146;-88
2021/01/21 15:00:16;37619.00;0.13;65.77;0.00;0.00;0.62;;;;;14.90;1.00;;;;;;2265475;61;999;-87
2021/01/21 15:02:44;0.00;0.00;0.62;0.00;0.00;0.62;;;;;15.00;1.00;;;;;;2272533;61;1979;-88
2021/01/21 15:05:12;20425.00;0.07;36.01;0.00;0.00;0.62;;;;;14.90;1.00;;;;;;2265524;61;1453;-89
2021/01/21 15:07:39;205490.00;0.68;355.37;42569.00;0.14;74.33;;;;;14.90;1.00;;;;;;2264000;61;976;-89
2021/01/21 15:10:08;218727.00;0.73;378.15;16510.00;0.06;29.23;;;;;14.90;1.00;;;;;;2261167;61;1076;-87
2021/01/21 15:12:36;0.00;0.00;0.62;0.00;0.00;0.62;;;;;14.80;1.00;;;;;;2254870;61;959;-90
2021/01/21 15:15:03;0.00;0.00;0.62;0.00;0.00;0.62;;;;;14.50;1.00;;;;;;2260544;61;1401;-88
2021/01/21 15:17:30;0.00;0.00;0.62;0.00;0.00;0.62;;;;;14.50;1.00;;;;;;2252469;61;1015;-89
2021/01/21 15:19:57;82163.00;0.27;142.77;13364.00;0.04;23.78;;;;;14.70;1.00;;;;;;2245957;61;997;-88
2021/01/21 15:22:24;0.00;0.00;0.62;0.00;0.00;0.62;;;;;15.20;1.00;;;;;;2252585;61;1999;-89
2021/01/21 15:24:51;20243.00;0.07;35.69;0.00;0.00;0.62;;;;;15.00;1.00;;;;;;2253088;61;1345;-90
2021/01/21 15:27:18;0.00;0.00;0.62;0.00;0.00;0.62;;;;;14.80;1.00;;;;;;2256430;61;1037;-89
2021/01/21 15:29:45;7508.00;0.03;13.63;0.00;0.00;0.62;;;;;14.40;1.00;;;;;;2256606;61;993;-86
2021/01/21 15:32:11;0.00;0.00;0.62;0.00;0.00;0.62;;;;;14.30;1.00;;;;;;2253131;61;981;-89
2021/01/21 15:34:38;7595.00;0.03;13.78;0.00;0.00;0.62;;;;;14.50;1.00;;;;;;2254061;61;1361;-88
2021/01/21 15:37:05;11672.00;0.04;20.85;0.00;0.00;0.62;;;;;14.80;1.00;;;;;;2257971;61;967;-89
2021/01/21 15:39:33;0.00;0.00;0.62;0.00;0.00;0.62;;;;;14.60;1.00;;;;;;2269065;61;1033;-89
2021/01/21 15:42:00;0.00;0.00;0.62;0.00;0.00;0.62;;;;;14.40;1.00;;;;;;2264429;61;1002;-89
2021/01/21 15:44:26;0.00;0.00;0.62;0.00;0.00;0.62;;;;;14.70;1.00;;;;;;2264548;61;2007;-89
2021/01/21 15:46:53;109980.00;0.37;190.80;41238.00;0.14;72.03;;;;;14.70;1.00;;;;;;2257916;61;1024;-88
2021/01/21 15:49:19;0.00;0.00;0.62;0.00;0.00;0.62;;;;;14.50;1.00;;;;;;2261271;61;955;-89
2021/01/21 15:51:46;0.00;0.00;0.62;0.00;0.00;0.62;;;;;14.70;1.00;;;;;;2257906;61;1050;-89
2021/01/21 15:54:13;8359.00;0.03;15.11;0.00;0.00;0.62;;;;;14.30;1.00;;;;;;2261107;61;1286;-90
2021/01/21 15:56:40;0.00;0.00;0.62;0.00;0.00;0.62;;;;;14.30;1.00;;;;;;2264501;61;944;-89
2021/01/21 15:59:06;0.00;0.00;0.62;0.00;0.00;0.62;;;;;14.10;1.00;;;;;;2265262;61;950;-89
2021/01/21 16:01:33;0.00;0.00;0.62;0.00;0.00;0.62;;;;;14.20;1.00;;;;;;2269293;61;1011;-88
2021/01/21 16:03:59;19356.00;0.06;34.15;0.00;0.00;0.62;;;;;14.00;1.00;;;;;;2264388;61;1920;-89
2021/01/21 16:06:26;0.00;0.00;0.62;0.00;0.00;0.62;;;;;14.00;1.00;;;;;;2261134;61;1006;-88
2021/01/21 16:08:52;128076.00;0.43;222.01;0.00;0.00;0.62;;;;;13.70;1.00;;;;;;2264488;61;1036;-87
2021/01/21 16:11:20;0.00;0.00;0.62;0.00;0.00;0.62;;;;;13.80;1.00;;;;;;2261087;61;977;-87
2021/01/21 16:13:46;144935.00;0.48;251.08;0.00;0.00;0.62;;;;;13.90;1.00;;;;;;2260990;61;1332;-87
2021/01/21 16:16:13;68739.00;0.23;119.58;0.00;0.00;0.62;;;;;13.60;1.00;;;;;;2264413;61;991;-89
2021/01/21 16:18:39;44086.00;0.15;76.96;0.00;0.00;0.62;;;;;13.90;1.00;;;;;;2264413;61;1067;-88
2021/01/21 16:21:06;41283.00;0.14;72.11;0.00;0.00;0.62;;;;;13.90;1.00;;;;;;2258692;61;1042;-88
2021/01/21 16:23:33;31551.00;0.11;55.27;0.00;0.00;0.62;;;;;13.70;1.00;;;;;;2272737;61;1919;-88
2021/01/21 16:26:01;0.00;0.00;0.62;0.00;0.00;0.62;;;;;13.70;1.00;;;;;;2265865;61;1018;-89
2021/01/21 16:28:28;0.00;0.00;0.62;0.00;0.00;0.62;;;;;14.00;1.00;;;;;;2272945;61;1022;-88
2021/01/21 16:30:55;15601.00;0.05;27.65;0.00;0.00;0.62;;;;;14.00;1.00;;;;;;2272815;61;917;-90
2021/01/21 16:33:22;13046.00;0.04;23.23;0.00;0.00;0.62;;;;;14.10;1.00;;;;;;2264261;61;1341;-88
2021/01/21 16:35:50;8748.00;0.03;15.78;0.00;0.00;0.62;;;;;14.10;1.00;;;;;;2264304;61;1058;-89
2021/01/21 16:38:16;69887.00;0.23;121.57;0.00;0.00;0.62;;;;;14.10;1.00;;;;;;2260878;61;1053;-88
2021/01/21 16:40:43;0.00;0.00;0.62;0.00;0.00;0.62;;;;;14.30;1.00;;;;;;2257702;61;961;-88
2021/01/21 16:43:09;30187.00;0.10;52.91;0.00;0.00;0.62;;;;;14.30;1.00;;;;;;2264291;61;1912;-88
2021/01/21 16:45:37;26029.00;0.09;45.71;0.00;0.00;0.62;;;;;14.70;1.00;;;;;;2257697;61;1431;-90
2021/01/21 16:48:05;24136.00;0.08;42.43;0.00;0.00;0.62;;;;;14.40;1.00;;;;;;2254361;61;974;-89
2021/01/21 16:50:33;4528.00;0.02;8.47;0.00;0.00;0.62;;;;;14.50;1.00;;;;;;2261396;61;1030;-88
2021/01/21 16:52:59;0.00;0.00;0.62;0.00;0.00;0.62;;;;;14.80;1.00;;;;;;2268402;61;1039;-89
2021/01/21 16:55:26;23968.00;0.08;42.14;0.00;0.00;0.62;;;;;15.00;1.00;;;;;;2261632;61;1354;-89
2021/01/21 16:57:52;7876.00;0.03;14.27;0.00;0.00;0.62;;;;;15.00;1.00;;;;;;2260275;61;946;-90
2021/01/21 17:00:19;0.00;0.00;0.62;0.00;0.00;0.62;;;;;15.40;1.00;;;;;;2260293;61;1001;-89
2021/01/21 17:02:47;26888.00;0.09;47.20;0.00;0.00;0.62;;;;;15.40;1.00;;;;;;2253568;61;1999;-90
2021/01/21 17:05:15;72537.00;0.24;126.14;0.00;0.00;0.62;;;;;15.50;1.00;;;;;;2260283;61;1381;-89
2021/01/21 17:07:41;121575.00;0.41;210.80;17515.00;0.06;30.97;;;;;15.40;1.00;;;;;;2260828;61;1029;-88
2021/01/21 17:10:09;12727.00;0.04;22.67;0.00;0.00;0.62;;;;;15.40;1.00;;;;;;2264379;61;1009;-90
2021/01/21 17:12:36;161288.00;0.54;279.26;25573.00;0.09;44.92;;;;;15.40;1.00;;;;;;2264085;61;1014;-90
2021/01/21 17:15:04;99176.00;0.33;172.15;0.00;0.00;0.62;;;;;15.50;1.00;;;;;;2265347;61;1329;-88
2021/01/21 17:17:31;0.00;0.00;0.62;0.00;0.00;0.62;;;;;15.50;1.00;;;;;;2268248;61;939;-89
2021/01/21 17:19:59;0.00;0.00;0.62;0.00;0.00;0.62;;;;;15.50;1.00;;;;;;2259920;61;1052;-87
2021/01/21 17:22:26;0.00;0.00;0.62;0.00;0.00;0.62;;;;;15.40;1.00;;;;;;2253596;61;965;-89
2021/01/21 17:24:53;9230.00;0.03;16.62;0.00;0.00;0.62;;;;;15.20;1.00;;;;;;2256730;61;1287;-88
2021/01/21 17:27:19;10086.00;0.03;18.10;0.00;0.00;0.62;;;;;15.00;1.00;;;;;;2256103;61;1055;-89
2021/01/21 17:29:46;97306.00;0.32;168.92;0.00;0.00;0.62;;;;;15.00;1.00;;;;;;2252820;61;1058;-89
2021/01/21 17:32:12;0.00;0.00;0.62;0.00;0.00;0.62;;;;;15.10;1.00;;;;;;2255971;61;1012;-89
2021/01/21 17:34:39;41994.00;0.14;73.34;0.00;0.00;0.62;;;;;14.80;1.00;;;;;;2256088;61;1330;-88
2021/01/21 17:37:06;7658.00;0.03;13.89;0.00;0.00;0.62;;;;;14.50;1.00;;;;;;2257136;61;1036;-88
2021/01/21 17:39:33;32326.00;0.11;56.61;0.00;0.00;0.62;;;;;14.60;1.00;;;;;;2252099;61;974;-88
2021/01/21 17:41:59;98905.00;0.33;171.68;0.00;0.00;0.62;;;;;14.70;1.00;;;;;;2248885;61;957;-89
2021/01/21 17:44:26;10832.00;0.04;19.39;0.00;0.00;0.62;;;;;14.80;1.00;;;;;;2245547;61;2016;-89
2021/01/21 17:46:52;49462.00;0.16;86.26;0.00;0.00;0.62;;;;;14.60;1.00;;;;;;2240213;62;1055;-90
2021/01/21 17:49:19;0.00;0.00;0.62;0.00;0.00;0.62;;;;;14.40;1.00;;;;;;2237836;61;958;-88
2021/01/21 17:51:45;0.00;0.00;0.62;0.00;0.00;0.62;;;;;14.30;1.00;;;;;;2241643;61;975;-87
2021/01/21 17:54:13;78005.00;0.26;135.59;0.00;0.00;0.62;;;;;14.50;1.00;;;;;;2241618;61;1458;-88
2021/01/21 17:56:39;0.00;0.00;0.62;0.00;0.00;0.62;;;;;14.50;1.00;;;;;;2249405;61;1054;-88
2021/01/21 17:59:06;26173.00;0.09;45.96;0.00;0.00;0.62;;;;;14.70;1.00;;;;;;2260098;61;1072;-88
2021/01/21 18:01:33;0.00;0.00;0.62;0.00;0.00;0.62;;;;;14.60;1.00;;;;;;2260074;61;1010;-89
2021/01/21 18:04:01;0.00;0.00;0.62;0.00;0.00;0.62;;;;;14.70;1.00;;;;;;2257288;61;1920;-88
2021/01/21 18:06:30;18557.00;0.06;32.77;0.00;0.00;0.62;;;;;14.90;1.00;;;;;;2264663;61;1015;-86
2021/01/21 18:08:57;24659.00;0.08;43.34;0.00;0.00;0.62;;;;;14.80;1.00;;;;;;2268108;61;1021;-89
2021/01/21 18:11:24;0.00;0.00;0.62;0.00;0.00;0.62;;;;;14.80;1.00;;;;;;2263995;61;988;-90
2021/01/21 18:13:51;42428.00;0.14;74.09;0.00;0.00;0.62;;;;;15.10;1.00;;;;;;2264023;61;1367;-90
2021/01/21 18:16:18;5793.00;0.02;10.66;0.00;0.00;0.62;;;;;15.20;1.00;;;;;;2264028;61;965;-90
2021/01/21 18:18:45;0.00;0.00;0.62;0.00;0.00;0.62;;;;;15.00;1.00;;;;;;2257407;61;1047;-89
2021/01/21 18:21:14;0.00;0.00;0.62;0.00;0.00;0.62;;;;;14.90;1.00;;;;;;2264627;61;1169;-90
2021/01/21 18:23:41;100003.00;0.33;173.58;33117.00;0.11;57.98;;;;;14.90;1.00;;;;;;2263835;61;1918;-88
2021/01/21 18:26:07;2002.00;0.01;4.09;0.00;0.00;0.62;;;;;14.90;1.00;;;;;;2263938;61;1047;-90
2021/01/21 18:28:35;0.00;0.00;0.62;0.00;0.00;0.62;;;;;14.80;1.00;;;;;;2255356;61;990;-88
2021/01/21 18:31:02;13594.00;0.05;24.18;0.00;0.00;0.62;;;;;14.80;1.00;;;;;;2243928;61;977;-88
2021/01/21 18:33:28;0.00;0.00;0.62;0.00;0.00;0.62;;;;;14.80;1.00;;;;;;2239962;62;1259;-88
2021/01/21 18:35:55;59109.00;0.20;102.94;0.00;0.00;0.62;;;;;14.90;1.00;;;;;;2236028;62;1023;-88
2021/01/21 18:38:21;21663.00;0.07;38.15;0.00;0.00;0.62;;;;;14.90;1.00;;;;;;2236022;62;980;-88
2021/01/21 18:40:48;168361.00;0.56;291.44;44079.00;0.15;76.95;;;;;14.70;1.00;;;;;;2236124;62;1027;-87
2021/01/21 18:43:14;8840.00;0.03;15.94;0.00;0.00;0.62;;;;;14.40;1.00;;;;;;2236946;61;1907;-87
2021/01/21 18:45:42;3228.00;0.01;6.21;0.00;0.00;0.62;;;;;14.20;1.00;;;;;;2244473;61;1406;-88
2021/01/21 18:48:09;131974.00;0.44;228.73;0.00;0.00;0.62;;;;;14.20;1.00;;;;;;2236928;61;1052;-87
2021/01/21 18:50:36;117406272.00;391.35;65554508.00;0.00;0.00;0.62;;;;;14.20;1.00;;;;;;2249083;61;1032;-88
2021/01/21 18:53:02;83977.00;0.28;145.91;0.00;0.00;0.62;;;;;14.10;1.00;;;;;;2257027;61;951;-87
2021/01/21 18:55:29;151222.00;0.50;261.91;0.00;0.00;0.62;;;;;13.90;1.00;;;;;;2250743;61;1407;-87
2021/01/21 18:57:56;28864.00;0.10;50.62;0.00;0.00;0.62;;;;;14.00;1.00;;;;;;2260639;61;1036;-88
2021/01/21 19:00:22;16914.00;0.06;29.93;0.00;0.00;0.62;;;;;14.00;1.00;;;;;;2260575;61;1006;-89
2021/01/21 19:02:51;15122.00;0.05;26.82;0.00;0.00;0.62;;;;;14.00;1.00;;;;;;2255325;61;2004;-88
2021/01/21 19:05:18;21892.00;0.07;38.55;0.00;0.00;0.62;;;;;13.90;1.00;;;;;;2272699;61;1424;-87
2021/01/21 19:07:44;113018.00;0.38;196.04;0.00;0.00;0.62;;;;;13.80;1.00;;;;;;2272570;61;1026;-89
2021/01/21 19:10:12;14036.00;0.05;24.94;0.00;0.00;0.62;;;;;13.90;1.00;;;;;;2262731;61;1034;-88
2021/01/21 19:12:39;89985.00;0.30;156.28;0.00;0.00;0.62;;;;;14.10;1.00;;;;;;2273150;61;1028;-89
2021/01/21 19:15:08;15254.00;0.05;27.05;0.00;0.00;0.62;;;;;14.00;1.00;;;;;;2268490;61;1353;-89
2021/01/21 19:17:34;21706.00;0.07;38.22;0.00;0.00;0.62;;;;;14.00;1.00;;;;;;2265217;61;1025;-89
2021/01/21 19:20:02;34524.00;0.12;60.41;0.00;0.00;0.62;;;;;14.10;1.00;;;;;;2268496;61;1022;-89
2021/01/21 19:22:28;16956.00;0.06;30.00;0.00;0.00;0.62;;;;;13.90;1.00;;;;;;2268395;61;994;-88
2021/01/21 19:24:55;0.00;0.00;0.62;0.00;0.00;0.62;;;;;13.80;1.00;;;;;;2268544;61;1985;-90
2021/01/21 19:27:22;12961.00;0.04;23.08;0.00;0.00;0.62;;;;;13.90;1.00;;;;;;2268580;61;999;-89
2021/01/21 19:29:48;211038.00;0.70;364.92;10721.00;0.04;19.20;;;;;13.90;1.00;;;;;;2261972;61;969;-88
2021/01/21 19:32:15;39148.00;0.13;68.41;0.00;0.00;0.62;;;;;14.00;1.00;;;;;;2269221;61;1059;-90
2021/01/21 19:34:42;36886.00;0.12;64.50;0.00;0.00;0.62;;;;;14.30;1.00;;;;;;2273137;61;1493;-89
2021/01/21 19:37:10;0.00;0.00;0.62;0.00;0.00;0.62;;;;;14.00;1.00;;;;;;2269353;61;984;-90
2021/01/21 19:39:37;8142.00;0.03;14.73;0.00;0.00;0.62;;;;;13.90;1.00;;;;;;2273083;61;1164;-89
2021/01/21 19:42:04;14048.00;0.05;24.96;0.00;0.00;0.62;;;;;13.70;1.00;;;;;;2273028;61;1096;-88
2021/01/21 19:44:31;0.00;0.00;0.62;0.00;0.00;0.62;;;;;13.80;1.00;;;;;;2269253;61;1997;-87
2021/01/21 19:46:57;24918.00;0.08;43.79;0.00;0.00;0.62;;;;;13.80;1.00;;;;;;2269320;61;995;-89
2021/01/21 19:49:26;0.00;0.00;0.62;0.00;0.00;0.62;;;;;14.00;1.00;;;;;;2269316;61;974;-88
2021/01/21 19:51:53;0.00;0.00;0.62;0.00;0.00;0.62;;;;;14.10;1.00;;;;;;2268469;61;1012;-87
2021/01/21 19:54:20;85833.00;0.29;149.11;18504.00;0.06;32.68;;;;;13.80;1.00;;;;;;2268527;61;1301;-88
2021/01/21 19:56:47;0.00;0.00;0.62;0.00;0.00;0.62;;;;;13.90;1.00;;;;;;2265077;61;1017;-88
2021/01/21 19:59:13;0.00;0.00;0.62;0.00;0.00;0.62;;;;;14.00;1.00;;;;;;2268411;61;997;-88
2021/01/21 20:01:40;36978.00;0.12;64.66;0.00;0.00;0.62;;;;;13.90;1.00;;;;;;2260480;61;956;-89
2021/01/21 20:04:07;206520.00;0.69;357.15;0.00;0.00;0.62;;;;;14.00;1.00;;;;;;2256978;61;1951;-90
2021/01/21 20:06:36;0.00;0.00;0.62;0.00;0.00;0.62;;;;;14.20;1.00;;;;;;2248395;61;995;-88
2021/01/21 20:09:04;0.00;0.00;0.62;0.00;0.00;0.62;;;;;14.20;1.00;;;;;;2242370;61;976;-88
2021/01/21 20:11:32;0.00;0.00;0.62;0.00;0.00;0.62;;;;;14.10;1.00;;;;;;2245866;61;984;-87
2021/01/21 20:13:58;57926.00;0.19;100.89;0.00;0.00;0.62;;;;;14.30;1.00;;;;;;2252376;61;1289;-87
2021/01/21 20:16:25;0.00;0.00;0.62;0.00;0.00;0.62;;;;;14.40;1.00;;;;;;2252531;61;1023;-88
2021/01/21 20:18:52;0.00;0.00;0.62;0.00;0.00;0.62;;;;;14.60;1.00;;;;;;2250250;61;963;-89
2021/01/21 20:21:18;0.00;0.00;0.62;0.00;0.00;0.62;;;;;14.60;1.00;;;;;;2268344;61;970;-90
2021/01/21 20:23:45;0.00;0.00;0.62;0.00;0.00;0.62;;;;;14.80;1.00;;;;;;2258927;61;1916;-90
2021/01/21 20:26:11;0.00;0.00;0.62;0.00;0.00;0.62;;;;;15.00;1.00;;;;;;2272493;61;977;-89
2021/01/21 20:28:38;143183.00;0.48;248.06;20730.00;0.07;36.53;;;;;14.90;1.00;;;;;;2272417;61;977;-88
2021/01/21 20:31:05;34512.00;0.12;60.39;0.00;0.00;0.62;;;;;14.70;1.00;;;;;;2265717;61;1030;-88
2021/01/21 20:33:33;0.00;0.00;0.62;0.00;0.00;0.62;;;;;14.60;1.00;;;;;;2265730;61;1530;-89
2021/01/21 20:35:59;0.00;0.00;0.62;0.00;0.00;0.62;;;;;14.30;1.00;;;;;;2272451;61;1040;-88
2021/01/21 20:38:26;0.00;0.00;0.62;0.00;0.00;0.62;;;;;13.80;1.00;;;;;;2265802;61;993;-86
2021/01/21 20:40:53;0.00;0.00;0.62;0.00;0.00;0.62;;;;;13.70;1.00;;;;;;2269136;61;943;-85
2021/01/21 20:43:19;10953.00;0.04;19.60;0.00;0.00;0.62;;;;;13.70;1.00;;;;;;2269034;61;1998;-85
2021/01/21 20:45:49;8365.00;0.03;15.12;0.00;0.00;0.62;;;;;13.80;1.00;;;;;;2269140;61;982;-87
2021/01/21 20:48:16;27690.00;0.09;48.58;0.00;0.00;0.62;;;;;13.90;1.00;;;;;;2269140;61;1027;-88
2021/01/21 20:50:42;0.00;0.00;0.62;0.00;0.00;0.62;;;;;13.70;1.00;;;;;;2269095;61;1024;-88
2021/01/21 20:53:10;0.00;0.00;0.62;0.00;0.00;0.62;;;;;13.80;1.00;;;;;;2268969;61;959;-88
2021/01/21 20:55:37;13185.00;0.04;23.47;0.00;0.00;0.62;;;;;13.80;1.00;;;;;;2269047;61;1317;-88
2021/01/21 20:58:03;10289.00;0.03;18.45;0.00;0.00;0.62;;;;;13.50;1.00;;;;;;2269081;61;994;-87
2021/01/21 21:00:31;0.00;0.00;0.62;0.00;0.00;0.62;;;;;13.50;1.00;;;;;;2265771;61;958;-87
2021/01/21 21:02:58;0.00;0.00;0.62;0.00;0.00;0.62;;;;;13.50;1.00;;;;;;2269025;61;1922;-88
2021/01/21 21:05:25;12139.00;0.04;21.65;0.00;0.00;0.62;;;;;13.20;1.00;;;;;;2269067;61;1437;-88
2021/01/21 21:07:51;0.00;0.00;0.62;0.00;0.00;0.62;;;;;13.30;1.00;;;;;;2268074;61;946;-87
2021/01/21 21:10:18;0.00;0.00;0.62;0.00;0.00;0.62;;;;;13.50;1.00;;;;;;2268357;61;1038;-87
2021/01/21 21:12:45;0.00;0.00;0.62;0.00;0.00;0.62;;;;;13.40;1.00;;;;;;2268313;61;967;-87
2021/01/21 21:15:14;0.00;0.00;0.62;0.00;0.00;0.62;;;;;13.30;1.00;;;;;;2268264;61;1261;-88
2021/01/21 21:17:41;0.00;0.00;0.62;0.00;0.00;0.62;;;;;13.50;1.00;;;;;;2268318;61;950;-87
2021/01/21 21:20:09;0.00;0.00;0.62;0.00;0.00;0.62;;;;;13.50;1.00;;;;;;2271465;61;995;-86
2021/01/21 21:22:36;0.00;0.00;0.62;0.00;0.00;0.62;;;;;13.70;1.00;;;;;;2272262;61;1020;-88
2021/01/21 21:25:03;15596.00;0.05;27.64;0.00;0.00;0.62;;;;;13.70;1.00;;;;;;2272215;61;1928;-87
2021/01/21 21:27:30;25729.00;0.09;45.19;0.00;0.00;0.62;;;;;13.60;1.00;;;;;;2272261;61;1033;-88
2021/01/21 21:29:56;0.00;0.00;0.62;0.00;0.00;0.62;;;;;13.40;1.00;;;;;;2265556;61;971;-87
2021/01/21 21:32:23;50723.00;0.17;88.44;0.00;0.00;0.62;;;;;13.50;1.00;;;;;;2265575;61;1051;-89
2021/01/21 21:34:50;25943.00;0.09;45.56;0.00;0.00;0.62;;;;;13.60;1.00;;;;;;2262241;61;1338;-87
2021/01/21 21:37:18;18616.00;0.06;32.87;0.00;0.00;0.62;;;;;13.60;1.00;;;;;;2265552;61;1019;-89